IN-0040 weather

Pedong Helipad
Pedong, Sikkim, India

Public forecast

Using degrees Celsius for public forecast. Weather courtesy of forecast.io.

METAR (pilot weather report)

Closest report is Bagdogra Airport, 32.3 nm (59.7 km) SSW. Retrieved 2019/09/23 04:30 UTC (0 seconds ago):

VEBD 230430Z 07005KT 6000 SCT020 BKN090 26/23 Q1014 TEMPO -RA

TAF (pilot weather forecast)

Forecast is more than 12 hours old.

Closest forecast is Bagdogra Airport, 32.3 nm (59.7 km) SSW. Retrieved 2019/09/22 12:30 UTC (16 hours ago):

TAF VEBD 220930Z 2212/2224 23008KT 6000 SCT030 BKN090 TEMPO 2214/2216 4000 TSRA FEW030TCU/CB